Scyoc, Pennsylvania
Current Conditions -  °F | °C
As of 9:06 AM on Thursday 27 Nov 2014 (Local Time) from KAOO Reporting Station
Haze Haze  
Wind Chill: 31°   Ceiling: 5000
Heat Index: 31°   Visibility: 3mi
Dew Point: 30°   Wind: 0mph
Humidity: 96%   Direction: NA
Pressure: 30.01"   Gusts: NA
Location:  40.3617°N, 77.6745°W
Report Text: KAOO 271406Z AUTO 00000KT 3SM BR OVC050 M01/M01 A3001 RMK AO2 T10061011
Loading
Personal Weather Stations






























Interactive Weather Map New forecast layout! Learn more

10-Day Weather Forecast

Advertisements
Track Severe Weather on mobile